createdAt,value
2023-02-06T00:01:23.896Z,100.00
2023-02-06T00:03:52.046Z,100.00
2023-02-06T00:06:21.210Z,100.00
2023-02-06T00:08:50.786Z,100.00
2023-02-06T00:11:18.715Z,100.00
2023-02-06T00:13:47.244Z,100.00
2023-02-06T00:16:19.438Z,100.00
2023-02-06T00:18:50.559Z,100.00
2023-02-06T00:21:20.334Z,100.00
2023-02-06T00:23:48.556Z,100.00
2023-02-06T00:26:18.509Z,100.00
2023-02-06T00:28:46.839Z,100.00
2023-02-06T00:31:16.118Z,100.00
2023-02-06T00:33:44.053Z,100.00
2023-02-06T00:36:12.008Z,100.00
2023-02-06T00:38:40.236Z,100.00
2023-02-06T00:41:08.363Z,100.00
2023-02-06T00:43:37.753Z,100.00
2023-02-06T00:46:05.933Z,100.00
2023-02-06T00:48:33.850Z,100.00
2023-02-06T00:51:01.789Z,100.00
2023-02-06T00:53:29.699Z,100.00
2023-02-06T00:55:57.606Z,100.00
2023-02-06T00:58:25.439Z,100.00
2023-02-06T01:00:55.241Z,100.00
2023-02-06T01:03:23.087Z,100.00
2023-02-06T01:05:51.072Z,100.00
2023-02-06T01:08:18.945Z,100.00
2023-02-06T01:10:46.960Z,100.00
2023-02-06T01:13:15.348Z,100.00
2023-02-06T01:15:43.396Z,100.00
2023-02-06T01:18:14.060Z,100.00
2023-02-06T01:20:42.278Z,100.00
2023-02-06T01:23:10.601Z,100.00
2023-02-06T01:25:38.641Z,100.00
2023-02-06T01:28:06.560Z,100.00
2023-02-06T01:30:34.594Z,100.00
2023-02-06T01:33:02.494Z,100.00
2023-02-06T01:35:31.809Z,100.00
2023-02-06T01:37:59.673Z,100.00
2023-02-06T01:40:27.602Z,100.00
2023-02-06T01:42:55.474Z,100.00
2023-02-06T01:45:44.435Z,100.00
2023-02-06T01:48:16.278Z,100.00
2023-02-06T01:50:49.104Z,100.00
2023-02-06T01:53:19.012Z,100.00
2023-02-06T01:55:49.093Z,100.00
2023-02-06T01:58:20.510Z,100.00
2023-02-06T02:00:49.798Z,100.00
2023-02-06T02:03:17.849Z,100.00
2023-02-06T02:05:48.607Z,100.00
2023-02-06T02:08:21.276Z,100.00
2023-02-06T02:10:49.574Z,100.00
2023-02-06T02:13:17.480Z,100.00
2023-02-06T02:15:59.943Z,100.00
2023-02-06T02:18:42.481Z,100.00
2023-02-06T02:21:52.049Z,100.00
2023-02-06T02:24:26.555Z,100.00
2023-02-06T02:27:23.181Z,100.00
2023-02-06T02:30:25.714Z,100.00
2023-02-06T02:33:38.033Z,100.00
2023-02-06T02:36:15.092Z,100.00
2023-02-06T02:38:55.256Z,100.00
2023-02-06T02:41:31.461Z,100.00
2023-02-06T02:44:05.708Z,100.00
2023-02-06T02:46:37.671Z,100.00
2023-02-06T02:49:10.392Z,100.00
2023-02-06T02:51:41.969Z,100.00
2023-02-06T02:54:10.531Z,100.00
2023-02-06T02:56:38.747Z,100.00
2023-02-06T02:59:11.908Z,100.00
2023-02-06T03:01:46.795Z,100.00
2023-02-06T03:04:19.196Z,100.00
2023-02-06T03:07:01.809Z,100.00
2023-02-06T03:09:41.048Z,100.00
2023-02-06T03:12:21.170Z,100.00
2023-02-06T03:14:55.848Z,100.00
2023-02-06T03:17:31.168Z,100.00
2023-02-06T03:20:02.362Z,100.00
2023-02-06T03:22:33.193Z,100.00
2023-02-06T03:25:03.721Z,100.00
2023-02-06T03:27:32.405Z,100.00
2023-02-06T03:30:04.069Z,100.00
2023-02-06T03:32:35.629Z,100.00
2023-02-06T03:35:08.510Z,100.00
2023-02-06T03:37:39.345Z,100.00
2023-02-06T03:40:09.426Z,100.00
2023-02-06T03:42:43.344Z,100.00
2023-02-06T03:45:16.938Z,100.00
2023-02-06T03:47:48.224Z,100.00
2023-02-06T03:50:17.109Z,100.00
2023-02-06T03:52:50.577Z,100.00
2023-02-06T03:55:21.240Z,100.00
2023-02-06T03:57:53.943Z,100.00
2023-02-06T04:00:22.185Z,100.00
2023-02-06T04:02:52.817Z,100.00
2023-02-06T04:05:21.366Z,100.00
2023-02-06T04:07:52.643Z,100.00
2023-02-06T04:10:20.784Z,100.00
2023-02-06T04:12:48.735Z,100.00
2023-02-06T04:15:16.980Z,100.00
2023-02-06T04:17:58.678Z,100.00
2023-02-06T04:20:28.235Z,100.00
2023-02-06T04:22:57.774Z,100.00
2023-02-06T04:25:26.097Z,100.00
2023-02-06T04:27:54.021Z,100.00
2023-02-06T04:30:22.257Z,100.00
2023-02-06T04:32:50.144Z,100.00
2023-02-06T04:35:18.394Z,100.00
2023-02-06T04:37:46.275Z,100.00
2023-02-06T04:40:15.558Z,100.00
2023-02-06T04:42:43.443Z,100.00
2023-02-06T04:45:11.413Z,100.00
2023-02-06T04:47:39.383Z,100.00
2023-02-06T04:50:08.309Z,100.00
2023-02-06T04:52:38.586Z,100.00
2023-02-06T04:55:06.934Z,100.00
2023-02-06T04:57:36.261Z,100.00
2023-02-06T05:00:05.159Z,100.00
2023-02-06T05:02:37.489Z,100.00
2023-02-06T05:05:05.831Z,100.00
2023-02-06T05:07:33.644Z,100.00
2023-02-06T05:10:01.669Z,100.00
2023-02-06T05:12:30.072Z,100.00
2023-02-06T05:14:59.448Z,100.00
2023-02-06T05:17:27.455Z,100.00
2023-02-06T05:19:58.297Z,100.00
2023-02-06T05:22:27.083Z,100.00
2023-02-06T05:24:55.147Z,100.00
2023-02-06T05:27:23.178Z,100.00
2023-02-06T05:29:51.176Z,100.00
2023-02-06T05:32:20.627Z,100.00
2023-02-06T05:34:48.511Z,100.00
2023-02-06T05:37:16.438Z,100.00
2023-02-06T05:39:44.346Z,100.00
2023-02-06T05:42:12.274Z,100.00
2023-02-06T05:44:40.178Z,100.00
2023-02-06T05:47:08.092Z,100.00
2023-02-06T05:49:39.573Z,100.00
2023-02-06T05:52:07.531Z,100.00
2023-02-06T05:54:35.401Z,100.00
2023-02-06T05:57:04.232Z,100.00
2023-02-06T05:59:32.466Z,100.00
2023-02-06T06:02:00.527Z,100.00
2023-02-06T06:04:28.650Z,100.00
2023-02-06T06:06:57.996Z,100.00
2023-02-06T06:09:26.015Z,100.00
2023-02-06T06:11:54.025Z,100.00
2023-02-06T06:14:21.921Z,100.00
2023-02-06T06:16:49.838Z,100.00
2023-02-06T06:19:17.674Z,99.83
2023-02-06T06:21:45.715Z,100.00
2023-02-06T06:24:15.048Z,98.76
2023-02-06T06:26:43.223Z,98.35
2023-02-06T06:29:11.100Z,99.30
2023-02-06T06:31:39.200Z,99.31
2023-02-06T06:34:07.193Z,99.17
2023-02-06T06:36:35.176Z,97.41
2023-02-06T06:39:04.677Z,96.18
2023-02-06T06:41:33.924Z,95.06
2023-02-06T06:44:02.119Z,94.28
2023-02-06T06:46:30.163Z,93.95
2023-02-06T06:48:58.098Z,93.73
2023-02-06T06:51:26.826Z,93.12
2023-02-06T06:53:54.897Z,92.82
2023-02-06T06:56:22.838Z,92.30
2023-02-06T06:58:52.111Z,91.05
2023-02-06T07:01:20.900Z,90.38
2023-02-06T07:03:49.106Z,89.67
2023-02-06T07:06:17.922Z,90.63
2023-02-06T07:08:45.841Z,90.95
2023-02-06T07:11:15.653Z,90.70
2023-02-06T07:13:44.289Z,90.37
2023-02-06T07:16:13.909Z,90.25
2023-02-06T07:18:43.046Z,88.88
2023-02-06T07:21:13.765Z,88.89
2023-02-06T07:23:41.707Z,87.72
2023-02-06T07:26:10.697Z,87.95
2023-02-06T07:28:38.707Z,88.81
2023-02-06T07:31:10.025Z,87.14
2023-02-06T07:33:39.409Z,86.19
2023-02-06T07:36:11.957Z,85.47
2023-02-06T07:38:40.146Z,85.76
2023-02-06T07:41:09.465Z,85.41
2023-02-06T07:43:39.562Z,84.75
2023-02-06T07:46:07.566Z,83.99
2023-02-06T07:48:35.775Z,83.39
2023-02-06T07:51:09.651Z,83.53
2023-02-06T07:53:38.835Z,83.54
2023-02-06T07:56:12.134Z,82.41
2023-02-06T07:58:40.721Z,82.63
2023-02-06T08:01:09.245Z,80.78
2023-02-06T08:03:38.769Z,81.13
2023-02-06T08:06:12.484Z,81.83
2023-02-06T08:08:40.595Z,81.01
2023-02-06T08:11:09.793Z,81.08
2023-02-06T08:13:37.812Z,80.36
2023-02-06T08:16:08.125Z,79.18
2023-02-06T08:18:37.382Z,76.60
2023-02-06T08:21:07.146Z,71.98
2023-02-06T08:23:36.632Z,70.55
2023-02-06T08:26:06.290Z,70.16
2023-02-06T08:28:35.197Z,68.65
2023-02-06T08:31:11.154Z,66.82
2023-02-06T08:33:39.470Z,67.48
2023-02-06T08:36:08.658Z,64.28
2023-02-06T08:38:38.374Z,63.70
2023-02-06T08:41:07.219Z,62.79
2023-02-06T08:43:35.026Z,64.25
2023-02-06T08:46:02.945Z,63.78
2023-02-06T08:48:30.910Z,63.09
2023-02-06T08:51:06.607Z,64.46
2023-02-06T08:53:34.608Z,65.16
2023-02-06T08:56:06.824Z,65.42
2023-02-06T08:58:35.357Z,65.62
2023-02-06T09:01:07.909Z,67.22
2023-02-06T09:03:36.137Z,66.83
2023-02-06T09:06:10.359Z,67.16
2023-02-06T09:08:39.126Z,66.97
2023-02-06T09:11:10.474Z,66.84
2023-02-06T09:13:39.456Z,68.53
2023-02-06T09:16:08.420Z,68.25
2023-02-06T09:18:36.660Z,69.40
2023-02-06T09:21:10.223Z,68.86
2023-02-06T09:23:38.928Z,68.96
2023-02-06T09:26:08.392Z,69.00
2023-02-06T09:28:36.344Z,69.29
2023-02-06T09:31:04.661Z,69.12
2023-02-06T09:33:32.735Z,69.92
2023-02-06T09:36:05.438Z,70.45
2023-02-06T09:38:33.778Z,69.45
2023-02-06T09:41:05.273Z,68.08
2023-02-06T09:43:35.802Z,64.51
2023-02-06T09:46:07.834Z,62.95
2023-02-06T09:48:39.524Z,63.58
2023-02-06T09:51:17.163Z,63.61
2023-02-06T09:53:59.065Z,62.01
2023-02-06T09:56:33.295Z,59.63
2023-02-06T09:59:10.622Z,62.28
2023-02-06T10:01:45.068Z,65.00
2023-02-06T10:04:34.089Z,64.96
2023-02-06T10:07:15.903Z,65.32
2023-02-06T10:09:48.471Z,65.56
2023-02-06T10:12:20.854Z,64.26
2023-02-06T10:14:54.477Z,64.14
2023-02-06T10:17:26.262Z,63.31
2023-02-06T10:20:00.454Z,62.61
2023-02-06T10:22:34.311Z,63.76
2023-02-06T10:25:17.882Z,62.49
2023-02-06T10:27:48.923Z,62.54
2023-02-06T10:30:21.101Z,62.20
2023-02-06T10:32:57.427Z,62.12
2023-02-06T10:35:45.683Z,62.79
2023-02-06T10:38:43.369Z,61.16
2023-02-06T10:41:21.201Z,61.83
2023-02-06T10:43:54.721Z,59.72
2023-02-06T10:46:48.348Z,59.78
2023-02-06T10:49:25.852Z,56.98
2023-02-06T10:51:56.941Z,61.13
2023-02-06T10:54:30.340Z,59.73
2023-02-06T10:57:01.745Z,59.52
2023-02-06T10:59:33.785Z,59.93
2023-02-06T11:02:26.476Z,61.56
2023-02-06T11:05:00.686Z,59.99
2023-02-06T11:07:32.338Z,59.03
2023-02-06T11:10:01.922Z,58.79
2023-02-06T11:12:34.822Z,61.22
2023-02-06T11:15:07.889Z,63.92
2023-02-06T11:17:37.349Z,63.33
2023-02-06T11:20:21.895Z,62.43
2023-02-06T11:22:53.179Z,62.01
2023-02-06T11:25:26.831Z,62.18
2023-02-06T11:27:55.590Z,61.77
2023-02-06T11:30:32.144Z,62.79
2023-02-06T11:33:05.893Z,62.12
2023-02-06T11:35:39.731Z,58.90
2023-02-06T11:38:17.038Z,58.37
2023-02-06T11:40:54.727Z,58.52
2023-02-06T11:43:24.557Z,56.59
2023-02-06T11:46:07.468Z,55.81
2023-02-06T11:48:40.248Z,55.04
2023-02-06T11:51:10.405Z,55.71
2023-02-06T11:53:39.230Z,56.07
2023-02-06T11:56:17.620Z,55.25
2023-02-06T11:58:46.423Z,56.25
2023-02-06T12:01:23.391Z,55.16
2023-02-06T12:03:59.338Z,55.62
2023-02-06T12:06:34.070Z,56.96
2023-02-06T12:09:04.107Z,56.79
2023-02-06T12:11:37.852Z,54.75
2023-02-06T12:14:11.211Z,56.05
2023-02-06T12:16:43.007Z,55.24
2023-02-06T12:19:18.543Z,54.92
2023-02-06T12:21:50.244Z,54.72
2023-02-06T12:24:28.690Z,55.16
2023-02-06T12:27:00.898Z,55.61
2023-02-06T12:29:35.153Z,55.25
2023-02-06T12:32:09.961Z,55.83
2023-02-06T12:34:50.301Z,51.57
2023-02-06T12:37:21.856Z,53.70
2023-02-06T12:39:52.503Z,53.86
2023-02-06T12:42:36.288Z,53.75
2023-02-06T12:45:12.311Z,54.07
2023-02-06T12:47:47.254Z,55.13
2023-02-06T12:50:22.916Z,55.19
2023-02-06T12:52:54.955Z,55.87
2023-02-06T12:55:28.228Z,57.40
2023-02-06T12:57:57.764Z,57.54
2023-02-06T13:00:50.833Z,58.77
2023-02-06T13:03:34.585Z,59.62
2023-02-06T13:06:14.057Z,58.50
2023-02-06T13:08:47.538Z,56.31
2023-02-06T13:11:27.736Z,56.77
2023-02-06T13:14:05.988Z,56.31
2023-02-06T13:16:51.908Z,55.38
2023-02-06T13:20:03.903Z,56.23
2023-02-06T13:22:49.511Z,57.43
2023-02-06T13:25:55.516Z,58.36
2023-02-06T13:29:09.677Z,59.08
2023-02-06T13:31:38.651Z,58.84
2023-02-06T13:34:17.476Z,58.13
2023-02-06T13:36:52.059Z,56.95
2023-02-06T13:39:30.637Z,57.20
2023-02-06T13:42:04.605Z,56.64
2023-02-06T13:44:37.592Z,57.66
2023-02-06T13:47:26.738Z,58.58
2023-02-06T13:50:37.702Z,57.52
2023-02-06T13:53:21.470Z,58.78
2023-02-06T13:56:03.517Z,58.17
2023-02-06T13:58:45.633Z,58.29
2023-02-06T14:01:16.989Z,59.44
2023-02-06T14:03:48.329Z,60.33
2023-02-06T14:06:31.251Z,61.03
2023-02-06T14:09:10.433Z,61.69
2023-02-06T14:12:13.107Z,62.85
2023-02-06T14:14:59.794Z,63.80
2023-02-06T14:17:41.126Z,64.14
2023-02-06T14:20:21.807Z,64.62
2023-02-06T14:23:00.111Z,65.45
2023-02-06T14:25:43.712Z,64.92
2023-02-06T14:28:43.372Z,64.88
2023-02-06T14:31:22.685Z,65.13
2023-02-06T14:34:05.255Z,65.51
2023-02-06T14:36:50.882Z,65.48
2023-02-06T14:40:04.392Z,66.01
2023-02-06T14:42:38.482Z,67.18
2023-02-06T14:45:10.119Z,67.07
2023-02-06T14:47:42.800Z,67.19
2023-02-06T14:50:19.938Z,67.29
2023-02-06T14:52:52.769Z,66.89
2023-02-06T14:55:31.721Z,67.39
2023-02-06T14:58:00.258Z,67.75
2023-02-06T15:00:30.336Z,68.42
2023-02-06T15:03:06.673Z,68.91
2023-02-06T15:05:35.640Z,69.78
2023-02-06T15:08:06.673Z,69.85
2023-02-06T15:10:37.619Z,70.12
2023-02-06T15:13:06.135Z,71.26
2023-02-06T15:15:36.600Z,71.33
2023-02-06T15:18:06.966Z,72.65
2023-02-06T15:20:40.255Z,72.84
2023-02-06T15:23:18.101Z,72.96
2023-02-06T15:26:06.508Z,73.88
2023-02-06T15:28:38.056Z,74.44
2023-02-06T15:31:18.335Z,74.33
2023-02-06T15:33:49.837Z,74.27
2023-02-06T15:36:26.247Z,75.52
2023-02-06T15:38:57.909Z,76.10
2023-02-06T15:41:28.725Z,75.68
2023-02-06T15:44:07.770Z,76.02
2023-02-06T15:46:39.090Z,76.83
2023-02-06T15:49:11.060Z,77.35
2023-02-06T15:51:50.121Z,77.76
2023-02-06T15:54:21.139Z,77.85
2023-02-06T15:56:52.105Z,78.02
2023-02-06T15:59:24.199Z,78.29
2023-02-06T16:01:56.615Z,78.93
2023-02-06T16:04:29.314Z,79.67
2023-02-06T16:07:05.341Z,79.21
2023-02-06T16:09:41.643Z,79.14
2023-02-06T16:12:10.698Z,79.55
2023-02-06T16:14:41.746Z,79.78
2023-02-06T16:17:26.564Z,80.19
2023-02-06T16:19:56.639Z,80.45
2023-02-06T16:22:28.492Z,80.10
2023-02-06T16:25:14.235Z,79.16
2023-02-06T16:27:45.711Z,79.76
2023-02-06T16:30:22.735Z,79.08
2023-02-06T16:32:55.375Z,78.46
2023-02-06T16:35:24.103Z,78.77
2023-02-06T16:37:54.294Z,77.75
2023-02-06T16:40:22.573Z,77.23
2023-02-06T16:42:52.095Z,76.66
2023-02-06T16:45:23.373Z,76.58
2023-02-06T16:47:53.284Z,75.94
2023-02-06T16:50:22.394Z,74.82
2023-02-06T16:52:52.841Z,74.50
2023-02-06T16:55:23.605Z,74.75
2023-02-06T16:57:54.344Z,74.61
2023-02-06T17:00:24.487Z,74.53
2023-02-06T17:02:54.716Z,74.24
2023-02-06T17:05:24.682Z,73.67
2023-02-06T17:07:54.203Z,73.74
2023-02-06T17:10:24.912Z,73.35
2023-02-06T17:12:53.438Z,72.62
2023-02-06T17:15:21.856Z,72.64
2023-02-06T17:17:49.777Z,72.45
2023-02-06T17:20:29.404Z,73.28
2023-02-06T17:22:57.336Z,73.56
2023-02-06T17:25:25.551Z,73.58
2023-02-06T17:27:53.944Z,73.80
2023-02-06T17:30:24.186Z,73.52
2023-02-06T17:32:52.362Z,73.43
2023-02-06T17:35:22.002Z,74.37
2023-02-06T17:37:51.479Z,74.33
2023-02-06T17:40:24.509Z,74.54
2023-02-06T17:42:52.734Z,74.68
2023-02-06T17:45:21.060Z,75.55
2023-02-06T17:47:49.224Z,75.62
2023-02-06T17:50:19.685Z,74.96
2023-02-06T17:52:49.215Z,76.27
2023-02-06T17:55:17.887Z,75.84
2023-02-06T17:57:46.098Z,76.19
2023-02-06T18:00:20.458Z,76.50
2023-02-06T18:02:48.369Z,77.16
2023-02-06T18:05:16.477Z,77.89
2023-02-06T18:07:44.820Z,78.07
2023-02-06T18:10:14.224Z,78.01
2023-02-06T18:12:42.431Z,78.92
2023-02-06T18:15:13.726Z,78.59
2023-02-06T18:17:43.012Z,78.09
2023-02-06T18:20:14.069Z,78.92
2023-02-06T18:22:42.134Z,79.06
2023-02-06T18:25:12.014Z,78.85
2023-02-06T18:27:42.875Z,79.19
2023-02-06T18:30:12.361Z,78.89
2023-02-06T18:32:41.678Z,78.79
2023-02-06T18:35:10.422Z,79.36
2023-02-06T18:37:39.041Z,79.43
2023-02-06T18:40:07.876Z,78.20
2023-02-06T18:42:54.577Z,78.76
2023-02-06T18:45:26.586Z,77.86
2023-02-06T18:47:55.671Z,77.78
2023-02-06T18:50:24.571Z,77.43
2023-02-06T18:52:52.844Z,76.90
2023-02-06T18:55:21.477Z,76.88
2023-02-06T18:57:49.891Z,76.47
2023-02-06T19:00:20.252Z,76.34
2023-02-06T19:02:50.150Z,76.83
2023-02-06T19:05:19.265Z,76.60
2023-02-06T19:07:50.677Z,76.48
2023-02-06T19:10:19.490Z,76.26
2023-02-06T19:12:47.988Z,76.19
2023-02-06T19:15:16.763Z,75.99
2023-02-06T19:17:45.331Z,75.45
2023-02-06T19:20:15.273Z,75.34
2023-02-06T19:22:43.407Z,74.44
2023-02-06T19:25:14.433Z,74.94
2023-02-06T19:27:42.996Z,73.98
2023-02-06T19:30:13.060Z,74.69
2023-02-06T19:32:41.246Z,73.86
2023-02-06T19:35:09.425Z,74.33
2023-02-06T19:37:38.706Z,73.63
2023-02-06T19:40:07.757Z,74.27
2023-02-06T19:42:35.924Z,73.42
2023-02-06T19:45:05.121Z,73.44
2023-02-06T19:47:33.105Z,73.46
2023-02-06T19:50:01.089Z,73.18
2023-02-06T19:52:29.117Z,73.18
2023-02-06T19:54:58.742Z,71.96
2023-02-06T19:57:26.882Z,72.15
2023-02-06T19:59:56.946Z,72.31
2023-02-06T20:02:24.855Z,71.89
2023-02-06T20:04:53.041Z,72.02
2023-02-06T20:07:21.655Z,71.79
2023-02-06T20:09:51.149Z,71.43
2023-02-06T20:12:20.440Z,71.33
2023-02-06T20:14:48.552Z,71.84
2023-02-06T20:17:18.185Z,71.79
2023-02-06T20:19:46.084Z,72.51
2023-02-06T20:22:15.076Z,72.13
2023-02-06T20:24:43.190Z,72.40
2023-02-06T20:27:12.799Z,73.21
2023-02-06T20:29:43.733Z,73.83
2023-02-06T20:32:12.086Z,74.44
2023-02-06T20:34:40.100Z,74.71
2023-02-06T20:37:09.481Z,74.00
2023-02-06T20:39:38.147Z,74.87
2023-02-06T20:42:06.106Z,75.13
2023-02-06T20:44:34.031Z,74.63
2023-02-06T20:47:03.666Z,75.39
2023-02-06T20:49:32.254Z,75.54
2023-02-06T20:52:00.319Z,76.02
2023-02-06T20:54:28.375Z,76.00
2023-02-06T20:56:56.269Z,76.38
2023-02-06T20:59:24.866Z,76.32
2023-02-06T21:01:52.952Z,76.94
2023-02-06T21:04:22.342Z,78.05
2023-02-06T21:06:50.307Z,78.22
2023-02-06T21:09:19.029Z,77.76
2023-02-06T21:11:49.076Z,78.88
2023-02-06T21:14:17.388Z,78.85
2023-02-06T21:16:45.440Z,79.08
2023-02-06T21:19:16.128Z,79.37
2023-02-06T21:21:46.560Z,80.29
2023-02-06T21:24:18.027Z,79.74
2023-02-06T21:26:45.920Z,80.81
2023-02-06T21:29:14.900Z,80.00
2023-02-06T21:31:44.197Z,80.42
2023-02-06T21:34:15.623Z,81.86
2023-02-06T21:36:45.945Z,82.12
2023-02-06T21:39:18.792Z,82.35
2023-02-06T21:41:47.782Z,82.66
2023-02-06T21:44:15.710Z,82.65
2023-02-06T21:46:43.612Z,83.74
2023-02-06T21:49:11.768Z,83.08
2023-02-06T21:51:40.382Z,83.90
2023-02-06T21:54:10.259Z,84.24
2023-02-06T21:56:39.221Z,85.04
2023-02-06T21:59:08.052Z,84.82
2023-02-06T22:01:38.261Z,85.37
2023-02-06T22:04:06.302Z,85.96
2023-02-06T22:06:37.027Z,85.53
2023-02-06T22:09:07.811Z,85.54
2023-02-06T22:11:38.828Z,85.87
2023-02-06T22:14:09.093Z,86.24
2023-02-06T22:16:37.316Z,86.48
2023-02-06T22:19:06.228Z,86.81
2023-02-06T22:21:35.914Z,86.36
2023-02-06T22:24:06.690Z,87.18
2023-02-06T22:26:38.459Z,87.73
2023-02-06T22:29:08.807Z,87.44
2023-02-06T22:31:38.388Z,87.67
2023-02-06T22:34:06.325Z,88.10
2023-02-06T22:36:34.763Z,88.77
2023-02-06T22:39:06.548Z,88.60
2023-02-06T22:41:35.521Z,88.19
2023-02-06T22:44:03.491Z,88.35
2023-02-06T22:46:35.201Z,88.57
2023-02-06T22:49:03.533Z,88.17
2023-02-06T22:51:31.461Z,88.67
2023-02-06T22:54:00.642Z,88.90
2023-02-06T22:56:31.723Z,88.88
2023-02-06T22:59:01.767Z,88.92
2023-02-06T23:01:33.248Z,88.38
2023-02-06T23:04:02.717Z,88.90
2023-02-06T23:06:32.202Z,88.73
2023-02-06T23:09:01.602Z,88.77
2023-02-06T23:11:31.535Z,89.07
2023-02-06T23:14:01.593Z,89.51
2023-02-06T23:16:31.689Z,89.84
2023-02-06T23:19:01.985Z,89.75
2023-02-06T23:21:29.904Z,89.38
2023-02-06T23:23:59.665Z,89.57
2023-02-06T23:26:28.169Z,88.63
2023-02-06T23:28:57.646Z,89.20
2023-02-06T23:31:25.945Z,88.71
2023-02-06T23:33:54.234Z,88.74
2023-02-06T23:36:26.783Z,88.58
2023-02-06T23:38:55.356Z,88.49
2023-02-06T23:41:26.689Z,88.49
2023-02-06T23:43:56.474Z,88.03
2023-02-06T23:46:24.850Z,87.42
2023-02-06T23:48:53.438Z,87.57
2023-02-06T23:51:24.169Z,87.26
2023-02-06T23:53:52.668Z,87.35
2023-02-06T23:56:23.981Z,87.60
2023-02-06T23:58:52.893Z,87.91
